Latest Weather Observations for Campania

IDT60901

Issued at 6:31 pm EST Thursday 9 April 2020 (issued every 10 minutes, with the page automatically refreshed every 10 minutes)

About weather observations | Map of Hobart area stations | Latest observations for Hobart area | Other Formats
Station Details ID: 094212 Name: CAMPANIA (KINCORA) Lat: -42.69 Lon: 147.43 Height: 45.0 m
Data from the previous 72 hours. | See also: Recent months at Campania
Date/Time
EST
Temp
°C
App
Temp
°C
Dew
Point
°C
Rel
Hum
%
Delta-T
°C
Wind Press
QNH
hPa
Press
MSL
hPa
Rain since
9am
mm
Dir  Spd
km/h
Gust
km/h
Spd
kts
Gust
kts
09/06:30pm 15.7 12.8 9.6 67 3.2 N 15 19 8 10 - - 0.0
09/06:00pm 15.7 13.2 9.6 67 3.2 N 13 17 7 9 - - 0.0
09/05:30pm 16.7 14.6 9.6 63 3.7 N 11 15 6 8 - - 0.0
09/05:00pm 18.2 15.3 9.8 58 4.5 N 15 22 8 12 - - 0.0
09/04:30pm 19.1 15.4 9.3 53 5.2 N 19 24 10 13 - - 0.0
09/04:00pm 19.7 16.1 9.9 53 5.2 N 19 24 10 13 - - 0.0
09/03:30pm 20.1 16.8 9.7 51 5.6 N 17 22 9 12 - - 0.0
09/03:00pm 20.0 16.6 9.0 49 5.8 N 17 22 9 12 - - 0.0
09/02:30pm 20.2 16.2 9.2 49 5.8 NNE 20 24 11 13 - - 0.0
09/02:00pm 20.3 17.7 6.3 40 7.0 N 9 15 5 8 - - 0.0
09/01:30pm 19.8 17.8 6.9 43 6.5 NW 7 11 4 6 - - 0.0
09/01:00pm 19.5 17.8 7.6 46 6.1 W 6 11 3 6 - - 0.0
09/12:30pm 18.6 15.9 7.4 48 5.7 NNW 11 17 6 9 - - 0.0
09/12:00pm 17.8 15.5 7.5 51 5.2 NW 9 15 5 8 - - 0.0
09/11:30am 17.4 15.7 8.3 55 4.7 NNE 7 17 4 9 - - 0.0
09/11:00am 16.8 15.2 8.8 59 4.1 NW 7 11 4 6 - - 0.0
09/10:30am 15.0 13.0 8.7 66 3.2 NNW 9 11 5 6 - - 0.0
09/10:00am 14.0 11.1 8.2 68 2.9 NNW 13 15 7 8 - - 0.0
09/09:30am 12.9 10.7 7.8 71 2.5 NNW 9 11 5 6 - - 0.0
09/09:00am 11.1 7.6 7.4 78 1.8 NNW 15 17 8 9 - - 0.0
09/08:30am 9.1 5.4 6.5 84 1.2 N 15 17 8 9 - - 0.0
09/08:00am 8.5 4.8 6.3 86 1.0 N 15 19 8 10 - - 0.0
09/07:30am 6.7 3.1 5.2 90 0.7 N 13 17 7 9 - - 0.0
09/07:00am 5.1 1.3 4.1 93 0.4 N 13 15 7 8 - - 0.0
09/06:30am 4.7 0.8 3.5 92 0.5 N 13 17 7 9 - - 0.0
09/06:00am 5.3 1.2 4.4 94 0.4 N 15 17 8 9 - - 0.0
09/05:30am 2.5 -0.9 1.9 96 0.2 N 9 11 5 6 - - 0.0
09/05:00am 2.9 -0.1 2.3 96 0.2 N 7 9 4 5 - - 0.0
09/04:30am 3.2 -1.2 2.8 97 0.2 NNE 15 17 8 9 - - 0.0
09/04:00am 2.7 -1.0 2.1 96 0.2 N 11 11 6 6 - - 0.0
09/03:30am 3.2 0.3 2.6 96 0.2 N 7 7 4 4 - - 0.0
09/03:00am 3.0 -0.7 2.6 97 0.2 N 11 13 6 7 - - 0.0
09/02:30am 3.1 -0.2 2.7 97 0.2 N 9 11 5 6 - - 0.0
09/02:00am 2.8 -0.1 2.4 97 0.2 N 7 7 4 4 - - 0.0
09/01:30am 2.9 -0.4 2.5 97 0.2 N 9 11 5 6 - - 0.0
09/01:00am 3.4 0.2 2.8 96 0.2 N 9 9 5 5 - - 0.0
09/12:30am 3.5 0.6 2.8 95 0.3 N 7 11 4 6 - - 0.0
09/12:00am 4.2 0.7 3.5 95 0.3 N 11 13 6 7 - - 0.0
 
Date/Time
EST
Temp
°C
App
Temp
°C
Dew
Point
°C
Rel
Hum
%
Delta-T
°C
Wind Press
QNH
hPa
Press
MSL
hPa
Rain since
9am
mm
Dir  Spd
km/h
Gust
km/h
Spd
kts
Gust
kts
08/11:30pm 4.5 1.4 3.8 95 0.3 N 9 11 5 6 - - 0.0
08/11:00pm 4.2 1.0 3.0 92 0.5 N 9 11 5 6 - - 0.0
08/10:30pm 4.5 1.0 3.3 92 0.5 N 11 11 6 6 - - 0.0
08/10:00pm 5.2 2.2 4.0 92 0.5 NNE 9 11 5 6 - - 0.0
08/09:30pm 6.0 2.3 4.5 90 0.6 N 13 15 7 8 - - 0.0
08/09:00pm 4.8 3.4 3.6 92 0.5 CALM 0 0 0 0 - - 0.0
08/08:30pm 5.4 2.9 3.9 90 0.6 NNE 6 7 3 4 - - 0.0
08/08:00pm 6.3 4.1 5.1 92 0.5 N 6 7 3 4 - - 0.0
08/07:30pm 7.0 5.9 5.0 87 0.9 CALM 0 0 0 0 - - 0.0
08/07:00pm 8.3 7.3 5.4 82 1.3 CALM 0 0 0 0 - - 0.0
08/06:30pm 8.5 5.7 5.3 80 1.4 SSW 9 11 5 6 - - 0.0
08/06:00pm 9.0 6.3 5.4 78 1.6 SSW 9 11 5 6 - - 0.0
08/05:30pm 11.1 8.1 5.8 70 2.5 SSW 11 13 6 7 - - 0.0
08/05:00pm 12.8 9.3 5.5 61 3.4 S 13 17 7 9 - - 0.0
08/04:30pm 13.4 10.0 5.8 60 3.6 S 13 17 7 9 - - 0.0
08/04:00pm 13.7 10.1 6.6 62 3.4 SE 15 19 8 10 - - 0.0
08/03:30pm 14.2 10.5 6.3 59 3.8 SE 15 20 8 11 - - 0.0
08/03:00pm 14.3 10.5 5.7 56 4.1 SSE 15 22 8 12 - - 0.0
08/02:30pm 14.5 10.5 4.8 52 4.5 SSE 15 20 8 11 - - 0.0
08/02:00pm 14.9 11.9 6.2 56 4.2 ESE 11 15 6 8 - - 0.0
08/01:30pm 14.8 11.6 5.3 53 4.5 SSE 11 17 6 9 - - 0.0
08/01:00pm 14.2 11.4 5.0 54 4.3 ENE 9 15 5 8 - - 0.0
08/12:30pm 13.7 10.4 4.8 55 4.1 SE 11 17 6 9 - - 0.0
08/12:00pm 14.0 10.7 6.4 60 3.7 SSE 13 17 7 9 - - 0.0
08/11:30am 13.2 9.7 5.6 60 3.6 SSE 13 20 7 11 - - 0.0
08/11:00am 13.2 10.3 6.5 64 3.2 SSE 11 17 6 9 - - 0.0
08/10:30am 13.0 11.1 6.6 65 3.1 E 6 11 3 6 - - 0.0
08/10:00am 12.9 11.0 6.9 67 2.9 NNW 6 11 3 6 - - 0.0
08/09:30am 12.0 10.4 8.1 77 1.9 N 6 9 3 5 - - 0.0
08/09:00am 11.0 9.2 8.0 82 1.5 N 7 9 4 5 - - 0.2
08/08:30am 10.1 8.6 8.4 89 0.8 NNE 6 7 3 4 - - 0.2
08/08:00am 8.9 6.3 7.7 92 0.6 NNE 11 13 6 7 - - 0.2
08/07:30am 8.1 4.6 7.2 94 0.4 NNE 15 17 8 9 - - 0.2
08/07:00am 7.7 5.6 6.6 93 0.5 N 7 9 4 5 - - 0.2
08/06:30am 7.4 5.5 6.5 94 0.4 N 6 9 3 5 - - 0.2
08/06:00am 7.3 4.4 6.7 96 0.3 NNE 11 15 6 8 - - 0.2
08/05:30am 5.7 3.2 4.7 93 0.4 NNE 7 11 4 6 - - 0.2
08/05:00am 7.3 5.1 6.1 92 0.5 N 7 11 4 6 - - 0.0
08/04:30am 7.7 4.9 6.8 94 0.4 NNW 11 11 6 6 - - 0.0
08/04:00am 6.5 4.3 5.3 92 0.5 NNW 6 9 3 5 - - 0.0
08/03:30am 7.4 5.4 6.3 93 0.5 NNW 6 7 3 4 - - 0.0
08/03:00am 8.6 6.6 7.1 90 0.7 N 7 9 4 5 - - 0.0
08/02:30am 10.2 8.3 7.6 84 1.2 S 7 9 4 5 - - 0.0
08/02:00am 10.9 9.9 7.4 79 1.7 E 2 9 1 5 - - 0.0
08/01:30am 11.2 9.4 7.3 77 1.9 SSE 6 13 3 7 - - 0.0
08/01:00am 11.2 8.7 8.1 81 1.5 S 11 17 6 9 - - 0.0
08/12:30am 11.4 7.7 7.9 79 1.7 S 17 20 9 11 - - 0.0
08/12:00am 11.0 9.1 8.9 87 1.0 S 9 11 5 6 - - 0.0
 
Date/Time
EST
Temp
°C
App
Temp
°C
Dew
Point
°C
Rel
Hum
%
Delta-T
°C
Wind Press
QNH
hPa
Press
MSL
hPa
Rain since
9am
mm
Dir  Spd
km/h
Gust
km/h
Spd
kts
Gust
kts
07/11:30pm 11.0 9.2 9.6 91 0.7 SSE 9 13 5 7 - - 0.0
07/11:00pm 11.3 8.0 9.4 88 1.0 SSE 17 22 9 12 - - 0.0
07/10:30pm 11.7 9.6 9.6 87 1.1 SE 11 15 6 8 - - 0.0
07/10:00pm 11.8 9.3 9.7 87 1.1 SSE 13 17 7 9 - - 0.0
07/09:30pm 12.4 8.8 9.8 84 1.3 S 19 22 10 12 - - 0.0
07/09:00pm 13.1 11.5 10.1 82 1.5 SE 9 15 5 8 - - 0.0
07/08:30pm 13.6 11.9 10.0 79 1.9 SSW 9 13 5 7 - - 0.0
07/08:00pm 13.9 10.6 7.9 67 3.0 SW 15 19 8 10 - - 0.0
07/07:30pm 14.3 9.6 7.8 65 3.2 WSW 22 28 12 15 - - 0.0
07/07:00pm 14.0 10.2 7.5 65 3.2 WSW 17 22 9 12 - - 0.0
07/06:30pm 14.3 11.7 7.6 64 3.3 W 11 15 6 8 - - 0.0
07/06:00pm 15.1 12.0 7.2 59 3.9 W 13 20 7 11 - - 0.0
07/05:30pm 15.3 11.4 7.1 58 4.0 WSW 17 24 9 13 - - 0.0
07/05:00pm 15.7 12.2 7.2 57 4.2 WNW 15 24 8 13 - - 0.0
07/04:30pm 15.8 12.8 7.6 58 4.1 WSW 13 19 7 10 - - 0.0
07/04:00pm 15.9 12.8 7.4 57 4.2 WSW 13 19 7 10 - - 0.0
07/03:30pm 16.2 12.4 7.4 56 4.4 WNW 17 24 9 13 - - 0.0
07/03:00pm 15.9 12.2 7.9 59 4.0 W 17 22 9 12 - - 0.0
07/02:30pm 16.0 12.4 8.2 60 4.0 W 17 24 9 13 - - 0.0
07/02:00pm 17.0 11.9 7.6 54 4.7 W 24 30 13 16 - - 0.0
07/01:30pm 17.2 12.5 7.8 54 4.8 W 22 28 12 15 - - 0.0
07/01:00pm 17.0 13.4 8.2 56 4.5 WNW 17 28 9 15 - - 0.0
07/12:30pm 16.3 12.4 7.3 55 4.5 WNW 17 28 9 15 - - 0.0
07/12:00pm 15.8 11.6 7.3 57 4.2 WNW 19 26 10 14 - - 0.0
07/11:30am 15.9 12.4 7.4 57 4.2 WNW 15 26 8 14 - - 0.0
07/11:00am 14.9 11.0 7.0 59 3.9 WNW 17 24 9 13 - - 0.0
07/10:30am 14.3 10.4 6.9 61 3.6 NW 17 22 9 12 - - 0.0
07/10:00am 13.7 10.5 7.0 64 3.3 NW 13 20 7 11 - - 0.0
07/09:30am 13.2 9.9 6.3 63 3.3 N 13 17 7 9 - - 0.0
07/09:00am 11.3 8.0 6.2 71 2.4 NNE 13 15 7 8 - - 0.0
07/08:30am 9.8 6.0 5.6 75 1.9 NNE 15 19 8 10 - - 0.0
07/08:00am 8.2 4.7 5.5 83 1.2 NNE 13 15 7 8 - - 0.0
07/07:30am 6.5 3.2 4.8 89 0.7 NNE 11 15 6 8 - - 0.0
07/07:00am 4.4 1.2 3.2 92 0.5 N 9 11 5 6 - - 0.0
07/06:30am 3.9 0.3 2.9 93 0.4 N 11 13 6 7 - - 0.0
07/06:00am 4.1 0.1 3.1 93 0.4 NNE 13 15 7 8 - - 0.0
07/05:30am 4.0 0.4 3.0 93 0.4 N 11 13 6 7 - - 0.0
07/05:00am 4.4 0.5 3.2 92 0.5 N 13 15 7 8 - - 0.0
07/04:30am 3.5 0.7 2.3 92 0.5 N 6 9 3 5 - - 0.0
07/04:00am 3.5 0.2 2.6 94 0.4 NNE 9 13 5 7 - - 0.0
07/03:30am 3.8 1.1 2.9 94 0.4 NNE 6 7 3 4 - - 0.0
07/03:00am 3.8 1.9 2.6 92 0.5 N 2 6 1 3 - - 0.0
07/02:30am 4.1 0.9 2.9 92 0.5 NNE 9 13 5 7 - - 0.0
07/02:00am 4.4 0.8 2.9 90 0.6 N 11 13 6 7 - - 0.0
07/01:30am 5.1 1.9 3.3 88 0.7 N 9 11 5 6 - - 0.0
07/01:00am 5.2 1.7 3.4 88 0.7 N 11 13 6 7 - - 0.0
07/12:30am 5.6 2.6 3.9 89 0.7 N 9 15 5 8 - - 0.0
07/12:00am 6.8 4.3 4.5 85 1.0 N 7 11 4 6 - - 0.0
 
Date/Time
EST
Temp
°C
App
Temp
°C
Dew
Point
°C
Rel
Hum
%
Delta-T
°C
Wind Press
QNH
hPa
Press
MSL
hPa
Rain since
9am
mm
Dir  Spd
km/h
Gust
km/h
Spd
kts
Gust
kts
06/11:30pm 6.3 3.7 4.1 86 0.9 N 7 7 4 4 - - 0.0
06/11:00pm 6.5 3.6 4.5 87 0.9 NW 9 11 5 6 - - 0.0
06/10:30pm 7.6 4.7 4.9 83 1.2 N 9 11 5 6 - - 0.0
06/10:00pm 9.0 6.1 4.8 75 1.9 NNW 9 9 5 5 - - 0.0
06/09:30pm 10.0 7.2 5.0 71 2.3 NNW 9 11 5 6 - - 0.0
06/09:00pm 11.1 7.8 4.8 65 2.9 WNW 11 15 6 8 - - 0.0
06/08:30pm 11.4 6.6 4.6 63 3.1 W 19 30 10 16 - - 0.0
06/08:00pm 11.3 7.2 4.5 63 3.1 W 15 20 8 11 - - 0.0
06/07:30pm 11.2 7.9 4.7 64 2.9 W 11 20 6 11 - - 0.0
06/07:00pm 11.7 7.6 4.4 61 3.3 W 15 26 8 14 - - 0.0

Latest Capital City Observations: Canberra | Sydney | Melbourne | Brisbane | Adelaide | Perth | Hobart | Darwin

Other formats

Comma delimited format used in spreadsheet applications
http://www.bom.gov.au/fwo/IDT60901/IDT60901.95972.axf

JavaScript Object Notation format (JSON) in row-major order
http://www.bom.gov.au/fwo/IDT60901/IDT60901.95972.json

Data quality

Most of these data are generated automatically and are frequently updated. Quality checks on data are not normally performed. It is possible for incorrect values to appear. Refer to information at About Latest Weather Observations and please check the disclaimer before using these data.